createdAt,value
2019-03-21T00:02:20.617Z,66.10
2019-03-21T00:05:00.801Z,66.10
2019-03-21T00:07:28.945Z,66.50
2019-03-21T00:10:35.725Z,67.10
2019-03-21T00:13:23.034Z,67.10
2019-03-21T00:16:10.426Z,67.10
2019-03-21T00:18:50.110Z,68.10
2019-03-21T00:21:30.311Z,68.40
2019-03-21T00:24:10.416Z,68.60
2019-03-21T00:26:51.426Z,68.80
2019-03-21T00:29:31.535Z,68.80
2019-03-21T00:32:11.682Z,68.90
2019-03-21T00:34:51.746Z,68.90
2019-03-21T00:37:31.796Z,69.20
2019-03-21T00:40:11.704Z,69.50
2019-03-21T00:42:51.949Z,69.60
2019-03-21T00:45:31.844Z,69.50
2019-03-21T00:48:12.383Z,69.90
2019-03-21T00:50:52.645Z,70.10
2019-03-21T00:53:32.493Z,70.60
2019-03-21T00:56:12.681Z,70.80
2019-03-21T00:58:53.101Z,70.40
2019-03-21T01:01:32.856Z,70.60
2019-03-21T01:04:13.431Z,70.80
2019-03-21T01:06:53.182Z,70.90
2019-03-21T01:09:33.208Z,70.70
2019-03-21T01:12:13.462Z,70.80
2019-03-21T01:14:41.677Z,71.00
2019-03-21T01:17:28.966Z,71.10
2019-03-21T01:20:16.360Z,71.10
2019-03-21T01:22:56.570Z,71.20
2019-03-21T01:25:36.761Z,71.20
2019-03-21T01:28:16.946Z,71.30
2019-03-21T01:30:57.068Z,71.60
2019-03-21T01:33:37.253Z,71.60
2019-03-21T01:36:17.177Z,71.70
2019-03-21T01:38:57.147Z,71.60
2019-03-21T01:41:37.189Z,71.60
2019-03-21T01:44:17.540Z,71.50
2019-03-21T01:46:57.519Z,71.40
2019-03-21T01:49:25.689Z,71.60
2019-03-21T01:52:13.083Z,72.10
2019-03-21T01:55:00.431Z,71.80
2019-03-21T01:57:40.945Z,71.80
2019-03-21T02:00:20.970Z,71.90
2019-03-21T02:03:01.449Z,71.90
2019-03-21T02:05:41.362Z,71.70
2019-03-21T02:08:21.419Z,71.80
2019-03-21T02:11:01.481Z,71.90
2019-03-21T02:13:41.595Z,71.90
2019-03-21T02:16:21.761Z,72.00
2019-03-21T02:19:02.125Z,72.10
2019-03-21T02:21:43.792Z,71.80
2019-03-21T02:24:24.001Z,72.20
2019-03-21T02:27:04.153Z,72.20
2019-03-21T02:29:44.352Z,72.20
2019-03-21T02:32:24.362Z,72.50
2019-03-21T02:35:04.506Z,72.70
2019-03-21T02:37:46.598Z,72.50
2019-03-21T02:40:26.863Z,72.70
2019-03-21T02:43:07.031Z,72.30
2019-03-21T02:45:47.005Z,72.40
2019-03-21T02:48:27.006Z,72.80
2019-03-21T02:51:06.924Z,72.70
2019-03-21T02:56:31.674Z,72.80
2019-03-21T02:59:18.997Z,72.70
2019-03-21T03:01:59.989Z,72.80
2019-03-21T03:04:39.954Z,72.60
2019-03-21T03:07:20.084Z,73.00
2019-03-21T03:09:59.767Z,72.90
2019-03-21T03:12:40.031Z,72.80
2019-03-21T03:15:23.005Z,73.30
2019-03-21T03:18:02.147Z,73.30
2019-03-21T03:20:42.294Z,73.10
2019-03-21T03:23:22.690Z,73.30
2019-03-21T03:26:02.505Z,73.90
2019-03-21T03:28:42.592Z,73.90
2019-03-21T03:31:22.738Z,74.00
2019-03-21T03:34:02.683Z,73.90
2019-03-21T03:36:31.656Z,74.20
2019-03-21T03:39:20.111Z,74.40
2019-03-21T03:41:59.989Z,74.40
2019-03-21T03:44:39.942Z,74.20
2019-03-21T03:47:20.469Z,74.40
2019-03-21T03:50:00.460Z,74.40
2019-03-21T03:52:40.277Z,74.30
2019-03-21T03:55:20.432Z,74.30
2019-03-21T03:58:00.424Z,74.30
2019-03-21T04:00:40.391Z,74.20
2019-03-21T04:03:21.063Z,74.30
2019-03-21T04:05:59.419Z,74.70
2019-03-21T04:08:39.439Z,75.40
2019-03-21T04:11:19.554Z,75.60
2019-03-21T04:13:59.957Z,75.80
2019-03-21T04:16:40.017Z,76.10
2019-03-21T04:19:20.082Z,76.10
2019-03-21T04:22:01.091Z,76.10
2019-03-21T04:24:41.121Z,76.10
2019-03-21T04:27:21.250Z,76.30
2019-03-21T04:30:01.178Z,76.20
2019-03-21T04:32:41.333Z,76.00
2019-03-21T04:35:21.782Z,76.20
2019-03-21T04:38:01.794Z,76.80
2019-03-21T04:40:41.877Z,76.20
2019-03-21T04:43:22.205Z,76.60
2019-03-21T04:46:03.644Z,76.50
2019-03-21T04:48:43.894Z,76.90
2019-03-21T04:51:24.043Z,76.90
2019-03-21T04:54:04.023Z,76.70
2019-03-21T04:56:33.102Z,76.70
2019-03-21T04:59:20.455Z,77.20
2019-03-21T05:02:00.838Z,76.90
2019-03-21T05:04:40.935Z,77.00
2019-03-21T05:07:21.158Z,76.90
2019-03-21T05:10:01.275Z,76.70
2019-03-21T05:12:41.933Z,76.60
2019-03-21T05:18:04.584Z,76.70
2019-03-21T05:20:45.314Z,76.90
2019-03-21T05:23:25.306Z,77.10
2019-03-21T05:26:05.689Z,77.10
2019-03-21T05:28:45.489Z,77.20
2019-03-21T05:31:25.621Z,77.20
2019-03-21T05:34:05.509Z,77.30
2019-03-21T05:36:45.956Z,77.10
2019-03-21T05:39:26.058Z,77.00
2019-03-21T05:41:54.267Z,77.00
2019-03-21T05:44:26.916Z,77.10
2019-03-21T05:49:48.811Z,77.50
2019-03-21T05:52:36.113Z,77.10
2019-03-21T05:55:23.442Z,77.60
2019-03-21T05:58:04.155Z,77.40
2019-03-21T06:00:44.202Z,77.10
2019-03-21T06:03:24.487Z,76.70
2019-03-21T06:06:13.172Z,75.40
2019-03-21T06:08:53.381Z,74.30
2019-03-21T06:11:33.326Z,72.70
2019-03-21T06:14:13.458Z,71.00
2019-03-21T06:16:53.249Z,70.10
2019-03-21T06:19:35.164Z,70.00
2019-03-21T06:22:15.639Z,69.30
2019-03-21T06:24:55.636Z,69.40
2019-03-21T06:27:35.845Z,69.20
2019-03-21T06:30:15.969Z,69.40
2019-03-21T06:32:56.423Z,69.80
2019-03-21T06:38:37.673Z,69.60
2019-03-21T06:41:17.777Z,68.80
2019-03-21T06:43:57.567Z,67.90
2019-03-21T06:46:48.534Z,63.50
2019-03-21T06:49:19.868Z,64.00
2019-03-21T06:52:00.060Z,62.30
2019-03-21T06:54:40.629Z,60.30
2019-03-21T06:57:20.650Z,59.80
2019-03-21T07:00:00.582Z,59.30
2019-03-21T07:02:40.717Z,58.90
2019-03-21T07:05:20.949Z,58.50
2019-03-21T07:08:01.084Z,58.10
2019-03-21T07:10:41.086Z,57.40
2019-03-21T07:13:21.652Z,56.40
2019-03-21T07:16:01.227Z,54.90
2019-03-21T07:21:39.718Z,52.40
2019-03-21T07:24:19.692Z,52.10
2019-03-21T07:26:59.851Z,50.80
2019-03-21T07:29:39.918Z,50.00
2019-03-21T07:32:20.149Z,48.40
2019-03-21T07:35:00.498Z,47.20
2019-03-21T07:37:40.314Z,46.90
2019-03-21T07:40:20.307Z,46.50
2019-03-21T07:43:00.389Z,45.70
2019-03-21T07:45:40.462Z,45.10
2019-03-21T07:48:20.389Z,44.50
2019-03-21T07:51:00.583Z,43.70
2019-03-21T07:53:40.969Z,42.20
2019-03-21T07:56:21.379Z,41.30
2019-03-21T07:59:01.167Z,40.30
2019-03-21T08:01:29.370Z,39.70
2019-03-21T08:04:16.654Z,38.90
2019-03-21T08:06:56.785Z,38.40
2019-03-21T08:09:25.905Z,37.30
2019-03-21T08:11:54.590Z,37.70
2019-03-21T08:17:42.132Z,36.60
2019-03-21T08:20:29.509Z,35.80
2019-03-21T08:23:09.535Z,34.80
2019-03-21T08:25:49.410Z,34.30
2019-03-21T08:28:19.162Z,33.60
2019-03-21T08:31:15.820Z,33.10
2019-03-21T08:34:03.099Z,32.50
2019-03-21T08:36:43.078Z,32.80
2019-03-21T08:39:22.926Z,32.10
2019-03-21T08:42:03.520Z,32.00
2019-03-21T08:44:43.439Z,31.80
2019-03-21T08:47:23.718Z,30.20
2019-03-21T08:50:04.001Z,30.20
2019-03-21T08:52:44.026Z,30.30
2019-03-21T08:55:24.051Z,30.10
2019-03-21T08:58:04.945Z,29.40
2019-03-21T09:00:45.071Z,29.40
2019-03-21T09:06:24.617Z,28.90
2019-03-21T09:09:04.553Z,28.30
2019-03-21T09:11:44.810Z,28.70
2019-03-21T09:14:24.869Z,27.50
2019-03-21T09:17:04.992Z,27.90
2019-03-21T09:19:46.127Z,27.60
2019-03-21T09:22:27.469Z,27.50
2019-03-21T09:24:55.833Z,27.60
2019-03-21T09:33:36.563Z,27.30
2019-03-21T09:36:16.820Z,27.60
2019-03-21T09:38:57.169Z,28.30
2019-03-21T09:41:37.439Z,27.90
2019-03-21T09:44:17.799Z,28.00
2019-03-21T09:46:57.534Z,27.80
2019-03-21T09:49:38.905Z,27.50
2019-03-21T09:52:18.786Z,27.40
2019-03-21T09:54:58.917Z,27.00
2019-03-21T09:57:39.346Z,28.50
2019-03-21T10:00:19.337Z,28.80
2019-03-21T10:03:00.316Z,28.70
2019-03-21T10:05:40.514Z,27.30
2019-03-21T10:08:20.679Z,27.70
2019-03-21T10:11:00.870Z,28.40
2019-03-21T10:13:41.172Z,27.80
2019-03-21T10:16:21.251Z,27.70
2019-03-21T10:19:01.266Z,27.90
2019-03-21T10:21:43.705Z,27.60
2019-03-21T10:24:23.886Z,27.70
2019-03-21T10:27:03.535Z,26.70
2019-03-21T10:29:43.575Z,26.90
2019-03-21T10:32:23.766Z,26.90
2019-03-21T10:35:03.705Z,26.90
2019-03-21T10:37:43.643Z,26.70
2019-03-21T10:40:23.860Z,26.10
2019-03-21T10:43:03.670Z,26.30
2019-03-21T10:45:43.542Z,25.80
2019-03-21T10:48:23.713Z,25.20
2019-03-21T10:51:11.028Z,25.10
2019-03-21T10:53:58.330Z,24.60
2019-03-21T10:56:26.559Z,24.40
2019-03-21T10:59:13.858Z,24.30
2019-03-21T11:01:53.736Z,24.50
2019-03-21T11:04:33.617Z,23.70
2019-03-21T11:07:13.904Z,24.10
2019-03-21T11:09:54.021Z,23.90
2019-03-21T11:12:34.126Z,24.20
2019-03-21T11:15:14.098Z,24.50
2019-03-21T11:17:54.110Z,24.50
2019-03-21T11:20:34.166Z,24.00
2019-03-21T11:23:14.434Z,23.50
2019-03-21T11:25:54.490Z,23.60
2019-03-21T11:28:36.136Z,23.40
2019-03-21T11:31:16.638Z,24.00
2019-03-21T11:33:56.754Z,23.90
2019-03-21T11:36:38.583Z,24.60
2019-03-21T11:39:18.837Z,23.70
2019-03-21T11:41:58.874Z,23.30
2019-03-21T11:44:27.081Z,23.20
2019-03-21T11:47:14.405Z,23.20
2019-03-21T11:50:01.757Z,22.90
2019-03-21T11:52:51.901Z,24.10
2019-03-21T11:55:32.278Z,22.80
2019-03-21T11:58:12.306Z,23.30
2019-03-21T12:00:52.333Z,23.80
2019-03-21T12:03:32.367Z,23.20
2019-03-21T12:06:12.454Z,22.60
2019-03-21T12:08:52.614Z,23.20
2019-03-21T12:11:33.501Z,22.60
2019-03-21T12:14:13.759Z,22.50
2019-03-21T12:16:54.006Z,22.70
2019-03-21T12:19:34.232Z,22.50
2019-03-21T12:22:14.340Z,22.50
2019-03-21T12:24:54.553Z,22.60
2019-03-21T12:27:34.752Z,22.70
2019-03-21T12:30:03.470Z,22.00
2019-03-21T12:32:50.765Z,22.00
2019-03-21T12:35:38.457Z,22.10
2019-03-21T12:38:18.335Z,21.40
2019-03-21T12:40:58.437Z,22.00
2019-03-21T12:43:39.868Z,22.10
2019-03-21T12:46:20.153Z,22.10
2019-03-21T12:49:01.557Z,21.80
2019-03-21T12:51:41.331Z,20.80
2019-03-21T12:54:21.449Z,21.40
2019-03-21T12:57:02.248Z,21.70
2019-03-21T12:59:42.550Z,21.30
2019-03-21T13:02:32.073Z,21.20
2019-03-21T13:05:05.265Z,21.30
2019-03-21T13:07:45.467Z,21.20
2019-03-21T13:10:25.882Z,21.50
2019-03-21T13:13:06.315Z,21.30
2019-03-21T13:15:46.014Z,20.80
2019-03-21T13:18:26.119Z,20.90
2019-03-21T13:21:06.214Z,20.50
2019-03-21T13:23:46.322Z,19.80
2019-03-21T13:26:26.516Z,19.60
2019-03-21T13:29:06.735Z,19.80
2019-03-21T13:31:47.070Z,19.40
2019-03-21T13:34:27.220Z,19.40
2019-03-21T13:37:07.159Z,19.30
2019-03-21T13:39:47.393Z,19.00
2019-03-21T13:42:27.528Z,18.80
2019-03-21T13:45:07.545Z,18.60
2019-03-21T13:47:48.816Z,18.80
2019-03-21T13:50:28.498Z,18.90
2019-03-21T13:53:18.044Z,18.30
2019-03-21T13:55:51.643Z,19.30
2019-03-21T13:58:31.580Z,19.40
2019-03-21T14:01:11.723Z,19.30
2019-03-21T14:03:51.635Z,19.20
2019-03-21T14:06:31.682Z,19.00
2019-03-21T14:09:11.622Z,18.60
2019-03-21T14:11:51.865Z,19.30
2019-03-21T14:14:32.059Z,18.90
2019-03-21T14:17:21.556Z,19.70
2019-03-21T14:19:54.532Z,19.60
2019-03-21T14:22:34.514Z,18.70
2019-03-21T14:25:14.815Z,19.00
2019-03-21T14:27:54.965Z,19.20
2019-03-21T14:30:34.674Z,19.30
2019-03-21T14:33:14.594Z,19.20
2019-03-21T14:35:54.374Z,19.60
2019-03-21T14:38:34.417Z,19.00
2019-03-21T14:41:14.445Z,19.10
2019-03-21T14:43:54.473Z,19.10
2019-03-21T14:46:34.550Z,18.70
2019-03-21T14:49:14.624Z,18.40
2019-03-21T14:51:54.915Z,18.50
2019-03-21T14:54:34.806Z,18.60
2019-03-21T14:57:14.910Z,18.00
2019-03-21T14:59:55.174Z,18.60
2019-03-21T15:02:35.029Z,18.80
2019-03-21T15:05:15.499Z,18.40
2019-03-21T15:07:55.553Z,18.20
2019-03-21T15:10:35.511Z,18.60
2019-03-21T15:13:16.059Z,18.80
2019-03-21T15:15:55.712Z,18.70
2019-03-21T15:18:35.670Z,18.60
2019-03-21T15:21:16.142Z,18.70
2019-03-21T15:23:58.925Z,19.10
2019-03-21T15:26:37.614Z,19.10
2019-03-21T15:29:17.339Z,18.90
2019-03-21T15:31:57.425Z,19.70
2019-03-21T15:34:37.599Z,19.90
2019-03-21T15:37:19.748Z,20.40
2019-03-21T15:39:48.002Z,20.50
2019-03-21T15:42:16.236Z,20.50
2019-03-21T15:45:24.143Z,20.60
2019-03-21T15:48:11.806Z,21.10
2019-03-21T15:51:03.843Z,21.20
2019-03-21T15:53:35.585Z,21.60
2019-03-21T15:56:15.709Z,21.90
2019-03-21T15:58:55.850Z,22.10
2019-03-21T16:01:36.234Z,22.40
2019-03-21T16:04:18.048Z,22.20
2019-03-21T16:06:58.190Z,23.00
2019-03-21T16:09:40.295Z,23.00
2019-03-21T16:12:20.216Z,23.70
2019-03-21T16:15:00.229Z,24.20
2019-03-21T16:17:28.547Z,24.50
2019-03-21T16:20:15.856Z,24.60
2019-03-21T16:22:56.670Z,25.60
2019-03-21T16:25:36.710Z,25.70
2019-03-21T16:28:16.582Z,25.90
2019-03-21T16:30:56.934Z,26.60
2019-03-21T16:33:36.739Z,26.20
2019-03-21T16:36:16.938Z,26.40
2019-03-21T16:38:57.074Z,26.50
2019-03-21T16:41:37.077Z,26.80
2019-03-21T16:44:17.565Z,26.90
2019-03-21T16:46:57.466Z,26.60
2019-03-21T16:49:37.868Z,27.30
2019-03-21T16:52:19.499Z,27.90
2019-03-21T16:55:00.030Z,27.60
2019-03-21T16:57:39.817Z,28.10
2019-03-21T17:00:29.427Z,28.60
2019-03-21T17:08:55.108Z,29.40
2019-03-21T17:11:35.058Z,29.70
2019-03-21T17:14:15.345Z,30.00
2019-03-21T17:16:55.290Z,30.10
2019-03-21T17:19:35.699Z,30.50
2019-03-21T17:22:15.604Z,31.90
2019-03-21T17:24:55.755Z,32.20
2019-03-21T17:27:36.706Z,32.70
2019-03-21T17:30:16.905Z,33.00
2019-03-21T17:32:57.122Z,32.90
2019-03-21T17:35:37.057Z,32.70
2019-03-21T17:38:17.357Z,33.00
2019-03-21T17:40:57.456Z,32.80
2019-03-21T17:43:37.393Z,33.20
2019-03-21T17:46:17.822Z,33.60
2019-03-21T17:48:58.335Z,34.70
2019-03-21T17:51:38.025Z,34.40
2019-03-21T17:54:18.830Z,35.40
2019-03-21T17:56:59.143Z,36.10
2019-03-21T17:59:39.454Z,37.00
2019-03-21T18:02:19.880Z,38.60
2019-03-21T18:04:59.869Z,39.90
2019-03-21T18:07:40.162Z,40.10
2019-03-21T18:10:20.321Z,41.10
2019-03-21T18:13:00.602Z,41.20
2019-03-21T18:15:40.428Z,41.90
2019-03-21T18:18:20.653Z,42.60
2019-03-21T18:21:01.066Z,43.20
2019-03-21T18:23:41.242Z,44.10
2019-03-21T18:26:21.306Z,44.60
2019-03-21T18:29:01.021Z,44.90
2019-03-21T18:31:29.335Z,45.20
2019-03-21T18:34:16.713Z,46.10
2019-03-21T18:37:04.032Z,46.10
2019-03-21T18:39:43.872Z,46.90
2019-03-21T18:42:23.926Z,47.20
2019-03-21T18:45:05.502Z,47.50
2019-03-21T18:47:45.038Z,48.00
2019-03-21T18:50:25.431Z,48.70
2019-03-21T18:53:05.606Z,48.70
2019-03-21T18:55:45.953Z,49.60
2019-03-21T18:58:26.059Z,50.00
2019-03-21T19:01:06.386Z,50.40
2019-03-21T19:03:47.404Z,50.00
2019-03-21T19:06:26.961Z,50.20
2019-03-21T19:09:07.044Z,50.40
2019-03-21T19:11:47.085Z,50.50
2019-03-21T19:14:28.309Z,50.30
2019-03-21T19:17:08.528Z,50.60
2019-03-21T19:19:48.345Z,51.00
2019-03-21T19:22:28.842Z,51.30
2019-03-21T19:25:17.915Z,51.50
2019-03-21T19:27:50.922Z,52.10
2019-03-21T19:30:30.842Z,52.10
2019-03-21T19:33:10.934Z,52.00
2019-03-21T19:35:51.029Z,52.10
2019-03-21T19:38:31.535Z,52.30
2019-03-21T19:41:12.887Z,52.80
2019-03-21T19:43:53.489Z,52.90
2019-03-21T19:46:33.445Z,52.80
2019-03-21T19:49:13.387Z,52.80
2019-03-21T19:51:53.425Z,54.60
2019-03-21T19:54:21.656Z,55.20
2019-03-21T19:57:09.270Z,55.90
2019-03-21T19:59:56.596Z,56.10
2019-03-21T20:02:38.221Z,56.30
2019-03-21T20:05:18.230Z,56.10
2019-03-21T20:07:58.913Z,56.20
2019-03-21T20:10:39.346Z,56.30
2019-03-21T20:13:20.245Z,56.80
2019-03-21T20:16:00.452Z,57.20
2019-03-21T20:18:42.719Z,57.50
2019-03-21T20:21:28.373Z,57.70
2019-03-21T20:24:08.533Z,57.90
2019-03-21T20:26:36.705Z,58.10
2019-03-21T20:29:05.084Z,58.40
2019-03-21T20:31:52.537Z,58.40
2019-03-21T20:40:31.870Z,59.70
2019-03-21T20:43:11.869Z,59.80
2019-03-21T20:45:52.274Z,59.90
2019-03-21T20:48:32.943Z,60.50
2019-03-21T20:51:13.245Z,59.90
2019-03-21T20:53:53.236Z,60.20
2019-03-21T20:56:33.400Z,60.30
2019-03-21T20:59:02.154Z,60.70
2019-03-21T21:01:49.565Z,60.90
2019-03-21T21:04:32.048Z,61.00
2019-03-21T21:07:14.225Z,61.30
2019-03-21T21:09:54.789Z,61.30
2019-03-21T21:12:34.903Z,61.50
2019-03-21T21:18:13.439Z,61.40
2019-03-21T21:23:55.730Z,62.60
2019-03-21T21:26:36.373Z,62.20
2019-03-21T21:29:16.525Z,62.40
2019-03-21T21:31:56.494Z,62.70
2019-03-21T21:34:36.462Z,62.60
2019-03-21T21:37:04.801Z,62.90
2019-03-21T21:39:52.177Z,63.30
2019-03-21T21:42:39.447Z,63.40
2019-03-21T21:45:19.135Z,63.30
2019-03-21T21:47:59.397Z,63.70
2019-03-21T21:50:39.482Z,63.60
2019-03-21T21:53:19.583Z,63.90
2019-03-21T21:55:59.778Z,64.50
2019-03-21T21:58:40.039Z,64.60
2019-03-21T22:01:20.302Z,64.70
2019-03-21T22:03:48.529Z,65.00
2019-03-21T22:06:28.558Z,65.10
2019-03-21T22:09:08.675Z,65.60
2019-03-21T22:11:48.809Z,65.60
2019-03-21T22:14:29.541Z,65.90
2019-03-21T22:17:09.214Z,65.60
2019-03-21T22:19:49.358Z,65.70
2019-03-21T22:22:29.539Z,65.70
2019-03-21T22:25:09.725Z,66.10
2019-03-21T22:27:39.304Z,65.40
2019-03-21T22:30:30.458Z,65.80
2019-03-21T22:32:58.601Z,66.00
2019-03-21T22:35:26.792Z,66.20
2019-03-21T22:38:14.217Z,66.30
2019-03-21T22:41:01.559Z,66.10
2019-03-21T22:43:29.882Z,66.50
2019-03-21T22:46:17.285Z,66.60
2019-03-21T22:49:07.049Z,66.40
2019-03-21T22:51:47.303Z,66.30
2019-03-21T22:54:27.285Z,66.30
2019-03-21T22:57:07.579Z,66.50
2019-03-21T22:59:47.619Z,66.30
2019-03-21T23:02:15.874Z,66.20
2019-03-21T23:05:03.818Z,66.60
2019-03-21T23:07:43.828Z,66.70
2019-03-21T23:10:24.071Z,66.80
2019-03-21T23:13:04.401Z,67.20
2019-03-21T23:15:44.768Z,67.50
2019-03-21T23:18:25.134Z,67.30
2019-03-21T23:21:05.307Z,68.00
2019-03-21T23:23:45.580Z,68.10
2019-03-21T23:26:26.088Z,68.70
2019-03-21T23:29:05.912Z,69.00
2019-03-21T23:31:45.946Z,68.90
2019-03-21T23:34:25.919Z,68.40
2019-03-21T23:37:06.174Z,69.00
2019-03-21T23:39:46.640Z,69.20
2019-03-21T23:42:26.344Z,69.20
2019-03-21T23:45:06.698Z,69.20
2019-03-21T23:47:46.918Z,69.50
2019-03-21T23:50:28.101Z,70.00
2019-03-21T23:53:08.415Z,71.20
2019-03-21T23:55:48.281Z,70.50
2019-03-21T23:58:28.241Z,71.00
